Time;durP1;ratioP1;P1;durP2;ratioP2;P2;SDS_P1;SDS_P2;PMS_P1;PMS_P2;Temp;Humidity;BMP_temperature;BMP_pressure;BME280_temperature;BME280_humidity;BME280_pressure;Samples;Min_cycle;Max_cycle;Signal;HPM_P1;HPM_P2
2023/01/22 00:00:04;;;;;;;16.70;5.38;;;19.70;54.90;;;;;;5073973;22;20400;-79
2023/01/22 00:02:38;;;;;;;20.67;5.53;;;19.80;55.30;;;;;;5049014;28;20052;-80
2023/01/22 00:05:04;;;;;;;14.77;5.47;;;19.70;55.20;;;;;;5049560;28;20551;-80
2023/01/22 00:07:30;;;;;;;20.98;6.15;;;19.70;55.00;;;;;;5049570;28;20060;-80
2023/01/22 00:09:56;;;;;;;17.10;5.47;;;19.70;55.10;;;;;;5050184;28;20044;-78
2023/01/22 00:12:22;;;;;;;16.63;5.65;;;19.70;55.10;;;;;;5047552;28;20037;-75
2023/01/22 00:14:48;;;;;;;17.98;5.72;;;19.70;55.00;;;;;;5048864;28;20040;-77
2023/01/22 00:17:14;;;;;;;15.70;4.97;;;19.70;55.20;;;;;;5047924;28;20508;-77
2023/01/22 00:19:40;;;;;;;16.80;5.00;;;19.70;55.10;;;;;;5049800;28;20082;-80
2023/01/22 00:22:06;;;;;;;17.15;5.63;;;19.70;55.10;;;;;;5048247;28;20851;-80
2023/01/22 00:24:31;;;;;;;14.43;4.93;;;19.70;55.10;;;;;;5049919;28;20056;-79
2023/01/22 00:26:57;;;;;;;18.25;5.30;;;19.70;55.10;;;;;;5049161;28;20021;-78
2023/01/22 00:29:23;;;;;;;13.65;4.97;;;19.70;55.10;;;;;;5048352;28;20473;-77
2023/01/22 00:31:49;;;;;;;13.18;4.55;;;19.70;54.90;;;;;;5046604;28;20474;-77
2023/01/22 00:34:14;;;;;;;18.35;5.10;;;19.70;55.10;;;;;;5049093;28;20029;-77
2023/01/22 00:36:40;;;;;;;18.90;4.93;;;19.80;55.10;;;;;;5047918;28;20163;-77
2023/01/22 00:39:08;;;;;;;15.32;4.75;;;19.70;55.20;;;;;;5048783;28;20477;-77
2023/01/22 00:41:35;;;;;;;13.68;4.50;;;19.70;55.00;;;;;;5048066;28;20033;-77
2023/01/22 00:44:01;;;;;;;15.85;4.68;;;19.70;55.20;;;;;;5047922;28;20150;-77
2023/01/22 00:46:27;;;;;;;14.65;4.55;;;19.70;55.10;;;;;;5016093;28;20554;-77
2023/01/22 00:48:52;;;;;;;14.07;4.53;;;19.70;55.20;;;;;;5046521;28;20489;-77
2023/01/22 00:51:18;;;;;;;12.20;4.45;;;19.70;55.10;;;;;;5047962;28;20029;-76
2023/01/22 00:53:45;;;;;;;11.70;4.13;;;19.80;55.00;;;;;;5048147;28;20174;-76
2023/01/22 00:56:12;;;;;;;14.27;4.47;;;19.80;55.20;;;;;;5047429;28;20534;-77
2023/01/22 00:58:39;;;;;;;13.68;4.50;;;19.70;55.20;;;;;;5046949;28;20741;-79
2023/01/22 01:01:05;;;;;;;13.68;4.53;;;19.70;55.20;;;;;;5047617;28;20043;-78
2023/01/22 01:03:32;;;;;;;15.45;4.38;;;19.70;55.10;;;;;;5059177;28;20396;-77
2023/01/22 01:06:17;;;;;;;13.93;4.00;;;19.70;55.70;;;;;;5033149;28;20090;-78
2023/01/22 01:08:45;;;;;;;15.07;4.00;;;19.80;56.10;;;;;;4999967;28;20033;-75
2023/01/22 01:11:15;;;;;;;12.07;4.63;;;19.80;55.50;;;;;;5013150;28;20037;-76
2023/01/22 01:13:42;;;;;;;11.97;4.47;;;19.80;55.20;;;;;;5026409;28;20055;-79
2023/01/22 01:16:12;;;;;;;12.80;4.28;;;19.80;55.40;;;;;;5048896;28;20044;-77
2023/01/22 01:18:37;;;;;;;;;;;19.80;55.60;;;;;;5051051;28;20021;-70
2023/01/22 01:21:06;;;;;;;17.65;8.98;;;19.80;55.60;;;;;;5050356;28;19908;-75
2023/01/22 01:23:33;;;;;;;18.67;10.05;;;19.70;55.40;;;;;;5045679;28;20457;-75
2023/01/22 01:25:59;;;;;;;16.90;7.10;;;19.70;54.90;;;;;;5045974;28;20037;-75
2023/01/22 01:28:27;;;;;;;22.40;7.78;;;19.70;55.10;;;;;;5052105;28;20079;-76
2023/01/22 01:30:53;;;;;;;18.35;7.30;;;19.70;54.80;;;;;;5048044;28;20029;-76
2023/01/22 01:33:19;;;;;;;20.08;7.85;;;19.70;55.20;;;;;;5047016;28;20443;-75
2023/01/22 01:35:45;;;;;;;18.48;7.28;;;19.70;54.80;;;;;;5048917;28;20068;-76
2023/01/22 01:38:11;;;;;;;16.58;7.03;;;19.80;54.80;;;;;;5044826;28;20401;-75
2023/01/22 01:40:43;;;;;;;18.85;6.90;;;19.80;55.00;;;;;;5048634;28;20492;-76
2023/01/22 01:43:16;;;;;;;19.33;7.22;;;19.70;55.10;;;;;;5048296;28;20021;-76
2023/01/22 01:45:42;;;;;;;15.95;7.18;;;19.70;55.20;;;;;;5048631;28;20029;-76
2023/01/22 01:48:16;;;;;;;17.27;6.80;;;19.70;55.20;;;;;;5048522;28;20052;-76
2023/01/22 01:50:48;;;;;;;17.83;7.10;;;19.70;55.20;;;;;;5048739;28;20025;-76
2023/01/22 01:53:14;;;;;;;14.98;6.95;;;19.70;55.40;;;;;;5048192;28;20044;-76
2023/01/22 01:55:40;;;;;;;12.50;6.18;;;19.70;55.30;;;;;;5048951;28;20032;-76
2023/01/22 01:58:11;;;;;;;16.40;6.68;;;19.70;55.20;;;;;;5048250;28;20033;-76
2023/01/22 02:00:40;;;;;;;23.08;7.15;;;19.70;55.30;;;;;;5048942;28;20039;-76
2023/01/22 02:03:05;;;;;;;16.65;6.88;;;19.70;55.40;;;;;;5048060;28;20389;-76
2023/01/22 02:05:36;;;;;;;14.35;6.85;;;19.70;55.40;;;;;;5065874;28;20039;-76
2023/01/22 02:08:04;;;;;;;14.50;6.68;;;19.70;55.30;;;;;;5054840;28;20060;-76
2023/01/22 02:10:30;;;;;;;16.90;7.28;;;19.70;55.50;;;;;;5046828;28;20103;-76
2023/01/22 02:13:02;;;;;;;13.98;5.88;;;19.70;55.40;;;;;;5048025;28;20477;-76
2023/01/22 02:15:29;;;;;;;13.50;6.18;;;19.70;55.60;;;;;;5048712;28;20025;-76
2023/01/22 02:17:55;;;;;;;15.25;6.35;;;19.70;55.50;;;;;;5048359;28;20051;-76
2023/01/22 02:20:21;;;;;;;15.55;6.30;;;19.70;55.60;;;;;;5049299;28;20150;-76
2023/01/22 02:22:48;;;;;;;13.80;6.10;;;19.70;55.70;;;;;;5051644;28;20366;-76
2023/01/22 02:25:15;;;;;;;15.90;6.82;;;19.70;55.70;;;;;;5052062;28;20104;-77
2023/01/22 02:27:43;;;;;;;11.85;5.95;;;19.70;56.00;;;;;;5051811;28;20028;-76
2023/01/22 02:30:09;;;;;;;11.85;5.93;;;19.70;55.70;;;;;;5050425;28;20029;-76
2023/01/22 02:32:35;;;;;;;12.85;6.53;;;19.70;55.70;;;;;;5068327;28;20102;-76
2023/01/22 02:35:01;;;;;;;13.27;6.13;;;19.70;55.80;;;;;;5055381;28;20119;-76
2023/01/22 02:37:27;;;;;;;12.73;6.18;;;19.70;55.80;;;;;;5066098;28;20029;-76
2023/01/22 02:39:55;;;;;;;13.32;5.78;;;19.70;55.60;;;;;;5051498;28;20052;-76
2023/01/22 02:42:20;;;;;;;11.98;5.68;;;19.70;55.70;;;;;;5051652;28;20033;-76
2023/01/22 02:44:48;;;;;;;12.55;6.00;;;19.70;55.80;;;;;;5048958;28;20029;-76
2023/01/22 02:47:15;;;;;;;11.32;5.50;;;19.70;55.60;;;;;;5034454;28;20036;-76
2023/01/22 02:49:41;;;;;;;12.75;5.93;;;19.70;55.60;;;;;;5049868;28;20021;-76
2023/01/22 02:52:06;;;;;;;10.45;5.45;;;19.70;55.80;;;;;;5050950;28;20052;-76
2023/01/22 02:54:33;;;;;;;10.70;5.43;;;19.70;55.80;;;;;;5035198;28;20496;-76
2023/01/22 02:56:59;;;;;;;14.05;6.05;;;19.70;56.00;;;;;;5049772;28;20021;-76
2023/01/22 02:59:25;;;;;;;12.05;5.88;;;19.70;55.80;;;;;;5050328;28;20041;-77
2023/01/22 03:01:51;;;;;;;12.60;5.68;;;19.70;55.70;;;;;;5051574;28;20043;-76
2023/01/22 03:04:16;;;;;;;11.52;5.40;;;19.70;55.80;;;;;;5033849;28;20095;-76
2023/01/22 03:06:44;;;;;;;12.77;5.57;;;19.70;56.20;;;;;;5051440;28;20025;-76
2023/01/22 03:09:12;;;;;;;10.73;5.38;;;19.70;55.50;;;;;;5049719;28;20021;-76
2023/01/22 03:11:41;;;;;;;10.48;5.63;;;19.70;55.90;;;;;;5050331;28;20052;-75
2023/01/22 03:22:26;;;;;;;9.00;5.10;;;19.70;55.50;;;;;;5045948;28;20108;-76
2023/01/22 03:24:52;;;;;;;10.43;5.00;;;19.70;55.60;;;;;;5032993;28;20048;-76
2023/01/22 03:27:23;;;;;;;13.07;5.22;;;19.70;56.50;;;;;;5044352;28;20075;-76
2023/01/22 03:29:50;;;;;;;11.07;5.63;;;19.70;55.50;;;;;;5049076;28;20028;-75
2023/01/22 03:32:18;;;;;;;9.13;4.90;;;19.70;55.60;;;;;;5049322;28;20105;-76
2023/01/22 03:34:44;;;;;;;13.18;5.40;;;19.70;55.90;;;;;;5049219;28;20525;-76
2023/01/22 03:37:13;;;;;;;14.15;5.00;;;19.70;55.40;;;;;;5050145;28;20025;-75
2023/01/22 03:39:41;;;;;;;23.45;5.80;;;19.80;55.80;;;;;;5049010;28;20037;-75
2023/01/22 03:42:10;;;;;;;13.00;5.38;;;19.80;56.20;;;;;;5073651;28;20039;-76
2023/01/22 03:44:35;;;;;;;14.93;5.55;;;19.80;57.00;;;;;;5054247;28;20037;-76
2023/01/22 03:47:02;;;;;;;11.45;4.97;;;19.80;56.20;;;;;;5070379;28;20029;-75
2023/01/22 03:49:28;;;;;;;15.18;6.00;;;19.80;55.50;;;;;;5062556;28;20029;-77
2023/01/22 03:51:56;;;;;;;19.00;5.50;;;19.80;56.60;;;;;;5051920;28;20503;-78
2023/01/22 03:54:24;;;;;;;12.88;5.00;;;19.80;56.00;;;;;;5050544;28;20442;-78
2023/01/22 03:56:49;;;;;;;17.13;8.52;;;19.80;56.30;;;;;;5050242;28;20032;-75
2023/01/22 03:59:22;;;;;;;19.38;6.60;;;19.70;55.70;;;;;;5056060;28;20033;-75
2023/01/22 04:01:49;;;;;;;15.18;5.72;;;19.70;56.20;;;;;;5048006;28;20033;-74
2023/01/22 04:04:15;;;;;;;15.80;6.63;;;19.60;56.60;;;;;;5048062;28;20100;-74
2023/01/22 04:06:42;;;;;;;14.35;6.03;;;19.60;56.80;;;;;;5047497;28;20501;-75
2023/01/22 04:09:08;;;;;;;16.73;6.57;;;19.50;56.90;;;;;;5031280;28;20060;-75
2023/01/22 04:11:39;;;;;;;14.93;5.90;;;19.50;57.00;;;;;;5047979;28;20458;-75
2023/01/22 04:14:07;;;;;;;17.90;5.93;;;19.50;57.20;;;;;;5047847;28;20029;-75
2023/01/22 04:16:35;;;;;;;15.45;6.22;;;19.40;57.20;;;;;;5047619;28;20028;-75
2023/01/22 04:19:00;;;;;;;14.75;5.80;;;19.40;57.30;;;;;;5049015;28;20488;-75
2023/01/22 04:21:47;;;;;;;12.95;6.05;;;19.40;57.30;;;;;;5048951;28;20024;-75
2023/01/22 04:24:13;;;;;;;12.50;6.20;;;19.50;57.30;;;;;;5047186;28;20079;-75
2023/01/22 04:26:39;;;;;;;12.23;5.45;;;19.60;56.90;;;;;;5048238;28;20476;-75
2023/01/22 04:29:05;;;;;;;14.50;5.70;;;19.60;56.60;;;;;;5071218;28;20028;-75
2023/01/22 04:31:31;;;;;;;16.80;5.53;;;19.60;56.70;;;;;;5069973;28;20366;-75
2023/01/22 04:34:12;;;;;;;12.75;6.00;;;19.60;56.40;;;;;;5052965;28;20370;-75
2023/01/22 04:36:45;;;;;;;15.25;6.18;;;19.60;56.40;;;;;;5069666;28;20462;-74
2023/01/22 04:39:11;;;;;;;14.57;5.70;;;19.70;56.50;;;;;;5069497;28;20033;-75
2023/01/22 04:41:38;;;;;;;12.93;5.70;;;19.60;56.60;;;;;;5056565;28;20032;-75
2023/01/22 04:44:04;;;;;;;13.18;5.47;;;19.70;56.60;;;;;;5057197;28;20067;-75
2023/01/22 04:46:32;;;;;;;15.88;5.82;;;19.70;56.60;;;;;;5049649;28;20029;-75
2023/01/22 04:48:57;;;;;;;11.10;5.20;;;19.60;56.40;;;;;;5032897;28;20032;-75
2023/01/22 04:51:24;;;;;;;10.88;5.13;;;19.70;56.50;;;;;;5049851;28;20029;-75
2023/01/22 04:53:50;;;;;;;17.52;5.97;;;19.70;56.70;;;;;;5049471;28;20082;-75
2023/01/22 04:56:17;;;;;;;13.52;5.80;;;19.70;56.60;;;;;;5032643;28;20037;-75
2023/01/22 04:58:43;;;;;;;11.13;5.25;;;19.70;56.40;;;;;;5049217;28;20040;-75
2023/01/22 05:01:09;;;;;;;10.68;5.40;;;19.60;56.30;;;;;;5049326;28;20032;-75
2023/01/22 05:03:34;;;;;;;19.00;6.00;;;19.60;56.40;;;;;;5049247;28;20040;-75
2023/01/22 05:06:03;;;;;;;10.95;5.28;;;19.70;56.20;;;;;;5039936;28;20029;-75
2023/01/22 05:08:30;;;;;;;10.23;5.28;;;19.70;56.60;;;;;;5036295;28;20028;-76
2023/01/22 05:11:00;;;;;;;14.65;5.57;;;19.70;56.40;;;;;;5047608;28;20021;-75
2023/01/22 05:13:29;;;;;;;13.88;5.40;;;19.60;56.60;;;;;;5049229;28;20067;-75
2023/01/22 05:15:55;;;;;;;13.05;6.20;;;19.60;56.60;;;;;;5050460;28;20436;-76
2023/01/22 05:18:23;;;;;;;16.33;5.90;;;19.60;56.60;;;;;;5032706;28;20108;-76
2023/01/22 05:20:50;;;;;;;10.77;5.60;;;19.60;56.50;;;;;;5049222;28;20037;-75
2023/01/22 05:23:17;;;;;;;16.70;5.50;;;19.60;56.60;;;;;;5049293;28;20044;-75
2023/01/22 05:25:48;;;;;;;15.43;5.65;;;19.60;56.60;;;;;;5048920;28;20025;-75
2023/01/22 05:28:15;;;;;;;14.90;5.80;;;19.60;56.40;;;;;;5049543;28;20102;-75
2023/01/22 05:31:10;;;;;;;14.38;5.85;;;19.60;56.50;;;;;;5036110;28;20099;-75
2023/01/22 05:33:47;;;;;;;11.73;5.80;;;19.60;56.50;;;;;;5049612;28;20029;-75
2023/01/22 05:36:14;;;;;;;13.75;5.10;;;19.60;56.50;;;;;;5048596;28;20035;-76
2023/01/22 05:38:41;;;;;;;11.50;5.07;;;19.60;56.50;;;;;;5049034;28;20064;-75
2023/01/22 05:41:07;;;;;;;12.82;5.38;;;19.60;56.60;;;;;;5049067;28;20040;-76
2023/01/22 05:43:37;;;;;;;12.75;5.72;;;19.70;56.60;;;;;;5047766;28;20037;-76
2023/01/22 05:46:04;;;;;;;12.43;5.82;;;19.70;56.20;;;;;;5033062;28;20137;-75
2023/01/22 05:48:47;;;;;;;12.35;5.18;;;19.60;56.50;;;;;;5045774;28;20081;-76
2023/01/22 05:51:20;;;;;;;13.43;5.47;;;19.70;56.40;;;;;;5029281;28;20029;-75
2023/01/22 05:53:46;;;;;;;10.98;5.43;;;19.60;56.40;;;;;;5029087;28;20032;-75
2023/01/22 05:56:13;;;;;;;11.05;5.90;;;19.70;56.30;;;;;;5048533;28;20437;-75
2023/01/22 05:58:39;;;;;;;10.73;5.35;;;19.70;56.40;;;;;;5051726;28;20074;-76
2023/01/22 06:01:05;;;;;;;9.73;5.13;;;19.70;56.40;;;;;;5052899;28;20448;-76
2023/01/22 06:03:38;;;;;;;12.02;6.03;;;19.70;56.40;;;;;;5052583;28;20374;-75
2023/01/22 06:06:13;;;;;;;10.43;5.43;;;19.70;56.60;;;;;;5052456;28;20104;-75
2023/01/22 06:08:40;;;;;;;15.88;6.20;;;19.70;56.60;;;;;;5051544;28;20112;-76
2023/01/22 06:11:10;;;;;;;12.75;5.68;;;19.70;56.60;;;;;;5052662;28;20021;-76
2023/01/22 06:13:37;;;;;;;10.95;5.00;;;19.70;56.50;;;;;;5052483;28;20033;-76
2023/01/22 06:16:13;;;;;;;10.98;5.75;;;19.70;56.60;;;;;;5052795;28;20086;-76
2023/01/22 06:19:05;;;;;;;12.75;5.75;;;19.70;56.30;;;;;;5029493;28;20558;-76
2023/01/22 06:21:44;;;;;;;13.02;5.13;;;19.70;56.40;;;;;;5049447;28;20463;-76
2023/01/22 06:24:11;;;;;;;10.45;5.10;;;19.70;56.80;;;;;;5052141;28;20470;-76
2023/01/22 06:26:37;;;;;;;10.68;5.40;;;19.70;56.20;;;;;;5051236;28;20035;-76
2023/01/22 06:29:05;;;;;;;13.63;5.30;;;19.70;56.50;;;;;;5019695;28;20514;-76
2023/01/22 06:31:32;;;;;;;14.43;5.43;;;19.70;56.40;;;;;;5052441;28;20108;-75
2023/01/22 06:33:57;;;;;;;10.73;5.28;;;19.70;56.40;;;;;;5052484;28;20029;-75
2023/01/22 06:36:24;;;;;;;11.77;5.10;;;19.70;56.30;;;;;;5035057;28;20040;-75
2023/01/22 06:38:50;;;;;;;11.85;5.80;;;19.70;56.30;;;;;;5052175;28;20436;-76
2023/01/22 06:41:26;;;;;;;11.68;5.78;;;19.70;56.30;;;;;;5051786;28;20037;-76
2023/01/22 06:43:56;;;;;;;11.60;5.35;;;19.70;56.10;;;;;;5004301;28;20065;-75
2023/01/22 06:46:22;;;;;;;10.18;5.43;;;19.70;56.30;;;;;;5031720;28;20048;-76
2023/01/22 06:49:00;;;;;;;9.70;4.97;;;19.80;56.20;;;;;;5048313;28;20025;-75
2023/01/22 06:51:28;;;;;;;14.65;5.88;;;19.80;56.50;;;;;;5048465;28;20025;-75
2023/01/22 06:53:54;;;;;;;11.30;5.72;;;19.70;56.40;;;;;;5047226;28;20492;-75
2023/01/22 06:56:20;;;;;;;9.85;5.10;;;19.80;56.20;;;;;;5048261;28;20030;-75
2023/01/22 06:58:45;;;;;;;9.38;4.97;;;19.80;56.40;;;;;;5048541;28;20478;-75
2023/01/22 07:01:11;;;;;;;10.00;5.80;;;19.80;56.30;;;;;;5032799;28;20041;-75
2023/01/22 07:03:37;;;;;;;12.25;4.85;;;19.70;56.20;;;;;;5031822;28;20036;-75
2023/01/22 07:06:03;;;;;;;10.50;5.20;;;19.70;56.70;;;;;;5032555;28;20064;-75
2023/01/22 07:08:31;;;;;;;12.90;5.13;;;19.80;56.40;;;;;;5032700;28;20480;-75
2023/01/22 07:10:58;;;;;;;8.05;4.68;;;19.70;56.20;;;;;;5039907;28;20029;-75
2023/01/22 07:13:24;;;;;;;9.18;4.60;;;19.80;56.30;;;;;;5052374;28;20121;-75
2023/01/22 07:15:49;;;;;;;8.55;4.50;;;19.70;56.50;;;;;;5052439;28;20116;-75
2023/01/22 07:18:18;;;;;;;11.23;4.82;;;19.70;56.50;;;;;;5052454;28;20056;-75
2023/01/22 07:20:44;;;;;;;10.95;5.03;;;19.70;56.30;;;;;;5051503;28;20049;-76
2023/01/22 07:23:10;;;;;;;8.32;5.03;;;19.70;56.50;;;;;;5051107;28;20056;-76
2023/01/22 07:25:36;;;;;;;10.35;5.18;;;19.70;56.70;;;;;;5052205;28;20028;-76
2023/01/22 07:28:04;;;;;;;10.50;4.63;;;19.70;56.70;;;;;;5034491;28;20079;-76
2023/01/22 07:30:29;;;;;;;9.77;5.05;;;19.70;56.90;;;;;;5052374;28;20453;-76
2023/01/22 07:33:02;;;;;;;9.25;5.03;;;19.70;56.40;;;;;;5052625;28;20056;-76
2023/01/22 07:35:28;;;;;;;11.80;5.30;;;19.70;56.30;;;;;;5050379;28;20033;-76
2023/01/22 07:37:57;;;;;;;8.63;4.78;;;19.70;56.70;;;;;;5051381;28;20099;-76
2023/01/22 07:40:23;;;;;;;8.23;4.63;;;19.80;56.60;;;;;;5052138;28;20481;-76
2023/01/22 07:42:50;;;;;;;9.60;4.85;;;19.70;56.80;;;;;;5052190;28;20108;-75
2023/01/22 07:45:19;;;;;;;11.00;4.90;;;19.70;56.40;;;;;;5050375;28;20040;-76
2023/01/22 07:47:57;;;;;;;11.35;4.93;;;19.70;56.60;;;;;;5051446;28;20032;-75
2023/01/22 07:50:26;;;;;;;9.57;4.63;;;19.70;56.50;;;;;;5051874;28;20086;-75
2023/01/22 07:52:52;;;;;;;10.60;5.13;;;19.70;56.40;;;;;;5050795;28;20317;-76
2023/01/22 07:55:18;;;;;;;8.57;4.75;;;19.70;56.40;;;;;;5051357;28;20029;-75
2023/01/22 07:57:44;;;;;;;11.68;5.32;;;19.80;56.60;;;;;;5051897;28;20033;-75
2023/01/22 08:00:11;;;;;;;11.40;5.18;;;19.80;56.50;;;;;;5050499;28;20408;-75
2023/01/22 08:02:41;;;;;;;10.15;4.63;;;19.80;56.70;;;;;;5050823;28;20035;-76
2023/01/22 08:05:07;;;;;;;11.10;4.78;;;19.70;56.70;;;;;;5050642;28;20060;-75
2023/01/22 08:07:33;;;;;;;8.18;4.63;;;19.80;56.70;;;;;;5051480;28;20472;-76
2023/01/22 08:09:59;;;;;;;12.95;4.90;;;19.80;56.40;;;;;;5050250;28;20516;-76
2023/01/22 08:12:25;;;;;;;9.45;4.50;;;19.70;57.10;;;;;;5050290;28;20104;-75
2023/01/22 08:14:51;;;;;;;13.95;5.18;;;19.70;56.80;;;;;;5050795;28;20029;-75
2023/01/22 08:17:17;;;;;;;10.30;4.82;;;19.70;56.60;;;;;;5050412;28;20108;-75
2023/01/22 08:19:42;;;;;;;9.13;5.03;;;19.70;56.70;;;;;;5051165;28;20128;-76
2023/01/22 08:22:08;;;;;;;11.18;5.30;;;19.80;56.60;;;;;;5051467;28;20112;-75
2023/01/22 08:24:34;;;;;;;9.15;4.95;;;19.70;56.70;;;;;;5051265;28;20100;-76
2023/01/22 08:27:00;;;;;;;10.95;4.80;;;19.70;56.50;;;;;;5049662;28;20021;-75
2023/01/22 08:29:26;;;;;;;8.55;4.82;;;19.70;56.40;;;;;;5051156;28;20534;-75
2023/01/22 08:31:54;;;;;;;8.40;4.82;;;19.70;56.80;;;;;;5051528;28;20029;-75
2023/01/22 08:34:21;;;;;;;9.90;5.28;;;19.70;57.10;;;;;;5050740;28;20025;-76
2023/01/22 08:36:47;;;;;;;8.82;4.70;;;19.70;57.00;;;;;;5050814;28;20020;-76
2023/01/22 08:39:12;;;;;;;9.82;4.60;;;19.70;56.80;;;;;;5050685;28;20405;-75
2023/01/22 08:41:39;;;;;;;8.77;4.07;;;19.70;57.20;;;;;;5050377;28;20025;-75
2023/01/22 08:44:06;;;;;;;8.40;4.90;;;19.70;57.40;;;;;;5050896;28;20311;-75
2023/01/22 08:46:34;;;;;;;8.23;4.95;;;19.70;57.60;;;;;;5050859;28;20484;-75
2023/01/22 08:49:02;;;;;;;9.45;5.00;;;19.70;57.50;;;;;;5049311;28;20029;-75
2023/01/22 08:51:28;;;;;;;9.23;4.57;;;19.80;57.50;;;;;;5032590;28;20021;-75
2023/01/22 08:53:54;;;;;;;8.35;4.47;;;19.70;57.20;;;;;;5050527;28;20036;-75
2023/01/22 08:56:20;;;;;;;9.43;4.82;;;19.80;57.30;;;;;;5050768;28;20090;-76
2023/01/22 08:58:49;;;;;;;9.98;4.72;;;19.70;57.30;;;;;;5050723;28;20067;-75
2023/01/22 09:01:15;;;;;;;11.67;4.90;;;19.80;57.30;;;;;;5050644;28;20401;-76
2023/01/22 09:03:42;;;;;;;8.38;4.68;;;19.80;57.20;;;;;;5050670;28;20039;-76
2023/01/22 09:06:08;;;;;;;11.50;4.88;;;19.80;57.50;;;;;;5050416;28;20021;-75
2023/01/22 09:08:34;;;;;;;9.30;4.72;;;19.80;57.20;;;;;;5049374;28;20435;-75
2023/01/22 09:11:02;;;;;;;9.07;5.05;;;19.80;57.40;;;;;;5051251;28;20013;-75
2023/01/22 09:13:27;;;;;;;9.00;4.70;;;19.80;57.20;;;;;;5052886;28;20385;-75
2023/01/22 09:15:57;;;;;;;7.82;4.57;;;19.80;57.20;;;;;;5048888;28;20039;-75
2023/01/22 09:18:23;;;;;;;9.65;4.20;;;19.80;57.40;;;;;;5050718;28;20041;-75
2023/01/22 09:20:49;;;;;;;9.00;4.68;;;19.80;57.70;;;;;;5050311;28;20159;-75
2023/01/22 09:23:15;;;;;;;11.68;4.32;;;19.80;57.30;;;;;;5049454;28;20036;-75
2023/01/22 09:25:41;;;;;;;7.72;4.22;;;19.80;57.40;;;;;;5015900;28;20029;-75
2023/01/22 09:28:08;;;;;;;10.20;4.90;;;19.80;57.60;;;;;;5049441;28;20027;-75
2023/01/22 09:30:35;;;;;;;9.73;5.10;;;19.80;57.30;;;;;;5051399;28;20100;-75
2023/01/22 09:33:01;;;;;;;8.60;4.47;;;19.80;57.80;;;;;;5054702;28;20037;-75
2023/01/22 09:35:27;;;;;;;9.68;4.85;;;19.80;57.40;;;;;;5054248;28;20129;-76
2023/01/22 09:37:54;;;;;;;7.18;4.22;;;19.80;57.30;;;;;;5054732;28;20083;-75
2023/01/22 09:40:24;;;;;;;9.95;4.88;;;19.80;57.50;;;;;;5053419;28;20032;-75
2023/01/22 09:42:53;;;;;;;7.32;4.45;;;19.80;57.30;;;;;;5049162;28;20550;-75
2023/01/22 09:45:24;;;;;;;8.38;5.03;;;19.80;57.50;;;;;;5036358;28;20029;-76
2023/01/22 09:47:53;;;;;;;8.55;4.50;;;19.90;57.60;;;;;;5053473;28;20032;-76
2023/01/22 09:50:23;;;;;;;11.20;4.97;;;19.80;57.50;;;;;;5052856;28;20032;-75
2023/01/22 09:52:52;;;;;;;7.35;4.40;;;19.80;57.40;;;;;;5052783;28;20033;-76
2023/01/22 09:55:22;;;;;;;9.98;4.70;;;19.90;57.50;;;;;;5053037;28;20028;-75
2023/01/22 09:57:55;;;;;;;8.88;4.65;;;19.90;57.40;;;;;;5032079;28;20037;-75
2023/01/22 10:00:27;;;;;;;9.60;4.65;;;19.80;57.40;;;;;;5016326;28;20087;-75
2023/01/22 10:03:01;;;;;;;12.38;4.68;;;19.80;57.60;;;;;;5033162;28;20079;-76
2023/01/22 10:05:45;;;;;;;7.75;4.45;;;19.90;59.20;;;;;;5032421;28;20038;-75
2023/01/22 10:08:16;;;;;;;11.85;4.38;;;19.60;50.80;;;;;;5049744;28;20389;-75
2023/01/22 10:10:42;;;;;;;17.48;4.28;;;19.10;45.60;;;;;;5049179;28;20029;-75
2023/01/22 10:13:13;;;;;;;13.38;3.70;;;19.10;48.80;;;;;;5061943;28;20494;-76
2023/01/22 10:15:39;;;;;;;13.63;4.40;;;19.10;49.20;;;;;;5069015;28;20036;-75
2023/01/22 10:18:15;;;;;;;6.97;3.55;;;19.20;50.00;;;;;;5052519;28;20496;-76
2023/01/22 10:20:42;;;;;;;12.13;3.58;;;19.30;50.50;;;;;;5043153;28;20029;-75
2023/01/22 10:23:16;;;;;;;14.48;4.07;;;19.40;51.70;;;;;;5052511;28;20485;-75
2023/01/22 10:25:42;;;;;;;8.90;4.18;;;19.50;51.50;;;;;;5034609;28;20075;-75
2023/01/22 10:28:09;;;;;;;9.50;4.18;;;19.60;51.70;;;;;;5053932;28;20021;-76
2023/01/22 10:30:47;;;;;;;16.45;4.93;;;19.70;53.10;;;;;;5068604;28;20035;-76
2023/01/22 10:33:17;;;;;;;11.32;4.53;;;19.80;54.70;;;;;;5058477;28;20547;-76
2023/01/22 10:35:46;;;;;;;19.92;4.50;;;19.90;56.20;;;;;;5055352;28;20112;-75
2023/01/22 10:38:23;;;;;;;15.80;4.53;;;19.90;55.90;;;;;;5069609;28;20063;-75
2023/01/22 10:40:57;;;;;;;13.55;4.93;;;19.90;56.40;;;;;;5072254;28;20036;-75
2023/01/22 10:43:33;;;;;;;9.55;4.38;;;19.90;56.40;;;;;;5053696;28;20029;-76
2023/01/22 10:46:14;;;;;;;7.50;3.92;;;20.00;55.10;;;;;;5046663;28;20123;-79
2023/01/22 10:48:40;;;;;;;9.15;3.95;;;19.90;55.40;;;;;;5049903;28;20040;-76
2023/01/22 10:51:19;;;;;;;11.02;3.90;;;20.00;55.10;;;;;;5050168;28;20017;-76
2023/01/22 10:53:57;;;;;;;13.27;3.85;;;19.90;54.60;;;;;;5052597;28;20043;-77
2023/01/22 10:56:43;;;;;;;10.00;4.22;;;19.90;55.30;;;;;;5051259;28;20033;-77
2023/01/22 10:59:35;;;;;;;10.73;4.20;;;20.00;54.70;;;;;;5032887;28;20042;-77
2023/01/22 11:02:10;;;;;;;11.40;4.28;;;19.90;54.60;;;;;;5031313;28;20045;-80
2023/01/22 11:04:36;;;;;;;8.48;3.53;;;20.00;55.30;;;;;;5053278;28;20095;-80
2023/01/22 11:07:12;;;;;;;7.13;3.67;;;19.90;55.10;;;;;;5053141;28;20025;-77
2023/01/22 11:10:24;;;;;;;9.13;4.40;;;19.90;55.10;;;;;;5059582;28;20024;-77
2023/01/22 11:13:04;;;;;;;15.32;4.60;;;19.90;55.20;;;;;;5053634;28;20025;-77
2023/01/22 11:15:52;;;;;;;12.05;4.00;;;19.90;55.50;;;;;;5051085;28;20443;-77
2023/01/22 11:18:28;;;;;;;15.20;4.78;;;19.90;55.40;;;;;;5052638;28;20055;-78
2023/01/22 11:20:56;;;;;;;18.10;4.70;;;19.90;56.20;;;;;;5051483;28;20029;-78
2023/01/22 11:23:29;;;;;;;25.08;6.22;;;20.00;58.00;;;;;;5052474;28;20495;-79
2023/01/22 11:26:20;;;;;;;12.95;5.57;;;19.90;58.40;;;;;;5034365;28;20485;-78
2023/01/22 11:29:27;;;;;;;19.00;6.35;;;20.00;58.90;;;;;;5051603;28;20092;-77
2023/01/22 11:32:04;;;;;;;15.82;5.20;;;19.90;59.00;;;;;;5028782;28;20125;-78
2023/01/22 11:34:49;;;;;;;16.45;6.03;;;20.00;59.20;;;;;;5010426;28;20037;-77
2023/01/22 11:37:18;;;;;;;15.02;5.75;;;19.90;59.40;;;;;;5052657;28;20097;-77
2023/01/22 11:39:44;;;;;;;;;;;19.90;60.20;;;;;;5051981;28;20059;-79
2023/01/22 11:42:28;;;;;;;14.52;5.75;;;20.00;60.90;;;;;;5051507;28;20435;-76
2023/01/22 11:45:23;;;;;;;24.35;5.82;;;20.00;60.60;;;;;;5051393;28;20108;-77
2023/01/22 11:48:11;;;;;;;16.02;5.88;;;20.00;61.20;;;;;;5052077;28;20440;-79
2023/01/22 11:51:09;;;;;;;15.57;5.63;;;20.00;62.40;;;;;;5050214;28;20032;-79
2023/01/22 11:53:57;;;;;;;19.48;6.35;;;20.10;61.70;;;;;;5038250;28;20052;-80
2023/01/22 11:56:44;;;;;;;21.35;6.15;;;20.00;62.60;;;;;;5033342;28;20036;-77
2023/01/22 11:59:27;;;;;;;14.32;6.25;;;20.10;61.70;;;;;;5036462;28;20032;-78
2023/01/22 12:01:55;;;;;;;19.88;8.30;;;20.10;62.00;;;;;;5049652;28;20565;-78
2023/01/22 12:04:40;;;;;;;24.70;9.95;;;20.10;62.40;;;;;;5050359;28;20025;-78
2023/01/22 12:07:19;;;;;;;27.20;10.23;;;20.20;62.60;;;;;;5050358;28;20056;-78
2023/01/22 12:09:54;;;;;;;22.63;8.95;;;20.20;62.70;;;;;;5050621;28;20029;-78
2023/01/22 12:12:42;;;;;;;18.45;8.57;;;20.20;62.60;;;;;;5050663;28;20377;-78
2023/01/22 12:15:36;;;;;;;22.37;8.67;;;20.20;62.50;;;;;;5050831;28;20090;-78
2023/01/22 12:18:17;;;;;;;22.77;8.70;;;20.20;62.40;;;;;;5064315;28;20021;-77
2023/01/22 12:21:05;;;;;;;24.48;9.80;;;20.20;62.90;;;;;;5050114;28;20115;-77
2023/01/22 12:23:50;;;;;;;23.58;10.35;;;20.20;63.50;;;;;;5050352;28;20481;-77
2023/01/22 12:26:22;;;;;;;23.15;10.48;;;20.20;64.50;;;;;;5048987;28;20098;-78
2023/01/22 12:29:05;;;;;;;32.08;10.57;;;20.20;64.40;;;;;;5050688;28;20031;-78
2023/01/22 12:31:44;;;;;;;23.48;9.93;;;20.20;65.00;;;;;;5048003;28;20661;-78
2023/01/22 12:34:33;;;;;;;26.80;9.82;;;20.20;65.30;;;;;;5049662;28;20021;-78
2023/01/22 12:37:01;;;;;;;29.05;9.85;;;20.20;65.30;;;;;;5048629;28;20045;-78
2023/01/22 12:39:39;;;;;;;24.83;9.68;;;20.20;65.40;;;;;;5049978;28;20473;-76
2023/01/22 12:42:31;;;;;;;29.92;9.95;;;20.20;65.70;;;;;;5064266;28;20507;-77
2023/01/22 12:44:59;;;;;;;28.25;9.93;;;20.20;65.40;;;;;;5050181;28;20035;-76
2023/01/22 12:47:49;;;;;;;25.67;9.73;;;20.20;65.40;;;;;;5048877;28;20550;-80
2023/01/22 12:50:18;;;;;;;27.25;9.88;;;20.20;65.40;;;;;;5047711;28;20371;-86
2023/01/22 12:52:46;;;;;;;25.77;9.50;;;20.20;65.20;;;;;;5062818;28;20103;-83
2023/01/22 12:55:29;;;;;;;25.42;9.30;;;20.20;64.80;;;;;;5049439;28;20297;-90
2023/01/22 12:57:55;;;;;;;28.30;9.70;;;20.20;64.90;;;;;;5048239;28;20051;-93
2023/01/22 13:00:58;;;;;;;26.00;9.20;;;20.20;64.80;;;;;;5015140;28;20041;-88